sensor_id;sensor_type;location;lat;lon;timestamp;temperature;humidity
429;DHT22;201;48.758;9.290;2022-11-14T00:00:09;3.10;23.40
429;DHT22;201;48.758;9.290;2022-11-14T00:02:36;3.10;23.40
429;DHT22;201;48.758;9.290;2022-11-14T00:05:02;3.00;23.30
429;DHT22;201;48.758;9.290;2022-11-14T00:07:31;3.00;23.30
429;DHT22;201;48.758;9.290;2022-11-14T00:09:57;3.00;23.40
429;DHT22;201;48.758;9.290;2022-11-14T00:12:22;3.00;23.40
429;DHT22;201;48.758;9.290;2022-11-14T00:14:48;3.00;23.90
429;DHT22;201;48.758;9.290;2022-11-14T00:17:13;3.00;23.60
429;DHT22;201;48.758;9.290;2022-11-14T00:19:39;3.00;23.60
429;DHT22;201;48.758;9.290;2022-11-14T00:22:04;3.00;23.50
429;DHT22;201;48.758;9.290;2022-11-14T00:24:30;2.90;23.40
429;DHT22;201;48.758;9.290;2022-11-14T00:26:56;2.90;23.50
429;DHT22;201;48.758;9.290;2022-11-14T00:29:22;2.90;23.60
429;DHT22;201;48.758;9.290;2022-11-14T00:31:47;2.90;23.60
429;DHT22;201;48.758;9.290;2022-11-14T00:34:13;2.80;23.60
429;DHT22;201;48.758;9.290;2022-11-14T00:36:39;2.80;23.70
429;DHT22;201;48.758;9.290;2022-11-14T00:39:04;2.80;23.80
429;DHT22;201;48.758;9.290;2022-11-14T00:41:30;2.70;23.90
429;DHT22;201;48.758;9.290;2022-11-14T00:43:55;2.70;24.00
429;DHT22;201;48.758;9.290;2022-11-14T00:46:21;2.70;24.20
429;DHT22;201;48.758;9.290;2022-11-14T00:48:46;2.60;24.20
429;DHT22;201;48.758;9.290;2022-11-14T00:51:12;2.60;24.30
429;DHT22;201;48.758;9.290;2022-11-14T00:53:37;2.60;24.40
429;DHT22;201;48.758;9.290;2022-11-14T00:56:04;2.70;24.50
429;DHT22;201;48.758;9.290;2022-11-14T00:58:29;2.70;24.50
429;DHT22;201;48.758;9.290;2022-11-14T01:00:55;2.60;24.50
429;DHT22;201;48.758;9.290;2022-11-14T01:03:21;2.60;24.40
429;DHT22;201;48.758;9.290;2022-11-14T01:05:48;2.60;24.40
429;DHT22;201;48.758;9.290;2022-11-14T01:08:16;2.50;24.20
429;DHT22;201;48.758;9.290;2022-11-14T01:10:45;2.40;24.00
429;DHT22;201;48.758;9.290;2022-11-14T01:13:12;2.40;24.00
429;DHT22;201;48.758;9.290;2022-11-14T01:15:42;2.30;24.00
429;DHT22;201;48.758;9.290;2022-11-14T01:18:10;2.30;24.00
429;DHT22;201;48.758;9.290;2022-11-14T01:20:40;2.30;24.00
429;DHT22;201;48.758;9.290;2022-11-14T01:23:10;2.30;24.00
429;DHT22;201;48.758;9.290;2022-11-14T01:25:37;2.30;23.80
429;DHT22;201;48.758;9.290;2022-11-14T01:28:07;2.30;23.70
429;DHT22;201;48.758;9.290;2022-11-14T01:30:33;2.20;23.60
429;DHT22;201;48.758;9.290;2022-11-14T01:32:59;2.20;23.50
429;DHT22;201;48.758;9.290;2022-11-14T01:35:25;2.20;23.50
429;DHT22;201;48.758;9.290;2022-11-14T01:37:51;2.20;23.50
429;DHT22;201;48.758;9.290;2022-11-14T01:40:16;2.20;23.50
429;DHT22;201;48.758;9.290;2022-11-14T01:42:42;2.20;23.50
429;DHT22;201;48.758;9.290;2022-11-14T01:45:46;2.20;23.50
429;DHT22;201;48.758;9.290;2022-11-14T01:53:43;2.10;23.30
429;DHT22;201;48.758;9.290;2022-11-14T01:56:13;2.10;23.30
429;DHT22;201;48.758;9.290;2022-11-14T01:58:44;2.20;23.40
429;DHT22;201;48.758;9.290;2022-11-14T02:01:10;2.20;23.40
429;DHT22;201;48.758;9.290;2022-11-14T02:03:38;2.20;23.30
429;DHT22;201;48.758;9.290;2022-11-14T02:06:06;2.20;23.50
429;DHT22;201;48.758;9.290;2022-11-14T02:08:33;2.20;23.70
429;DHT22;201;48.758;9.290;2022-11-14T02:10:59;2.30;23.90
429;DHT22;201;48.758;9.290;2022-11-14T02:13:24;2.30;24.00
429;DHT22;201;48.758;9.290;2022-11-14T02:15:51;2.30;24.10
429;DHT22;201;48.758;9.290;2022-11-14T02:18:16;2.30;24.10
429;DHT22;201;48.758;9.290;2022-11-14T02:20:42;2.30;24.20
429;DHT22;201;48.758;9.290;2022-11-14T02:23:11;2.30;24.30
429;DHT22;201;48.758;9.290;2022-11-14T02:25:37;2.20;24.20
429;DHT22;201;48.758;9.290;2022-11-14T02:28:04;2.10;24.10
429;DHT22;201;48.758;9.290;2022-11-14T02:30:32;2.00;24.10
429;DHT22;201;48.758;9.290;2022-11-14T02:32:57;1.90;23.80
429;DHT22;201;48.758;9.290;2022-11-14T02:35:23;1.70;23.80
429;DHT22;201;48.758;9.290;2022-11-14T02:37:48;1.60;23.90
429;DHT22;201;48.758;9.290;2022-11-14T02:40:14;1.60;24.00
429;DHT22;201;48.758;9.290;2022-11-14T02:42:40;1.70;24.20
429;DHT22;201;48.758;9.290;2022-11-14T02:45:06;1.70;24.30
429;DHT22;201;48.758;9.290;2022-11-14T02:47:32;1.70;24.60
429;DHT22;201;48.758;9.290;2022-11-14T02:49:57;1.70;24.90
429;DHT22;201;48.758;9.290;2022-11-14T02:52:23;1.80;25.20
429;DHT22;201;48.758;9.290;2022-11-14T02:54:48;1.90;25.50
429;DHT22;201;48.758;9.290;2022-11-14T02:57:14;1.90;25.50
429;DHT22;201;48.758;9.290;2022-11-14T02:59:39;1.90;25.50
429;DHT22;201;48.758;9.290;2022-11-14T03:02:05;1.90;25.50
429;DHT22;201;48.758;9.290;2022-11-14T03:04:30;1.80;25.40
429;DHT22;201;48.758;9.290;2022-11-14T03:06:55;1.70;25.40
429;DHT22;201;48.758;9.290;2022-11-14T03:09:21;1.60;25.40
429;DHT22;201;48.758;9.290;2022-11-14T03:11:46;1.60;25.50
429;DHT22;201;48.758;9.290;2022-11-14T03:14:12;1.50;25.50
429;DHT22;201;48.758;9.290;2022-11-14T03:16:37;1.50;25.60
429;DHT22;201;48.758;9.290;2022-11-14T03:19:03;1.60;25.80
429;DHT22;201;48.758;9.290;2022-11-14T03:21:28;1.60;25.80
429;DHT22;201;48.758;9.290;2022-11-14T03:23:54;1.70;25.90
429;DHT22;201;48.758;9.290;2022-11-14T03:26:19;1.70;25.90
429;DHT22;201;48.758;9.290;2022-11-14T03:28:45;1.70;25.90
429;DHT22;201;48.758;9.290;2022-11-14T03:31:12;1.80;26.00
429;DHT22;201;48.758;9.290;2022-11-14T03:33:38;1.80;26.00
429;DHT22;201;48.758;9.290;2022-11-14T03:36:04;1.80;26.00
429;DHT22;201;48.758;9.290;2022-11-14T03:38:30;1.80;25.90
429;DHT22;201;48.758;9.290;2022-11-14T03:40:57;1.80;26.00
429;DHT22;201;48.758;9.290;2022-11-14T03:43:23;1.80;26.00
429;DHT22;201;48.758;9.290;2022-11-14T03:45:49;1.80;26.00
429;DHT22;201;48.758;9.290;2022-11-14T03:48:14;1.80;25.90
429;DHT22;201;48.758;9.290;2022-11-14T03:50:40;1.80;25.90
429;DHT22;201;48.758;9.290;2022-11-14T03:53:06;1.80;25.80
429;DHT22;201;48.758;9.290;2022-11-14T03:55:32;1.70;25.60
429;DHT22;201;48.758;9.290;2022-11-14T03:57:58;1.50;25.20
429;DHT22;201;48.758;9.290;2022-11-14T04:00:24;1.20;24.80
429;DHT22;201;48.758;9.290;2022-11-14T04:02:49;1.00;24.90
429;DHT22;201;48.758;9.290;2022-11-14T04:05:15;0.90;24.90
429;DHT22;201;48.758;9.290;2022-11-14T04:07:40;0.80;25.10
429;DHT22;201;48.758;9.290;2022-11-14T04:10:06;0.80;25.30
429;DHT22;201;48.758;9.290;2022-11-14T04:12:32;0.80;25.40
429;DHT22;201;48.758;9.290;2022-11-14T04:14:57;0.80;25.60
429;DHT22;201;48.758;9.290;2022-11-14T04:17:23;0.70;25.50
429;DHT22;201;48.758;9.290;2022-11-14T04:19:48;0.70;25.70
429;DHT22;201;48.758;9.290;2022-11-14T04:22:14;0.80;25.90
429;DHT22;201;48.758;9.290;2022-11-14T04:24:40;0.80;25.90
429;DHT22;201;48.758;9.290;2022-11-14T04:27:05;0.80;26.00
429;DHT22;201;48.758;9.290;2022-11-14T04:29:31;0.90;26.20
429;DHT22;201;48.758;9.290;2022-11-14T04:31:57;0.90;26.30
429;DHT22;201;48.758;9.290;2022-11-14T04:34:22;0.90;26.30
429;DHT22;201;48.758;9.290;2022-11-14T04:36:47;0.90;26.40
429;DHT22;201;48.758;9.290;2022-11-14T04:39:16;0.90;26.40
429;DHT22;201;48.758;9.290;2022-11-14T04:41:42;0.90;26.40
429;DHT22;201;48.758;9.290;2022-11-14T04:44:08;0.90;26.50
429;DHT22;201;48.758;9.290;2022-11-14T04:46:33;0.90;26.60
429;DHT22;201;48.758;9.290;2022-11-14T04:48:59;0.90;26.60
429;DHT22;201;48.758;9.290;2022-11-14T04:51:24;1.00;26.60
429;DHT22;201;48.758;9.290;2022-11-14T04:53:50;1.00;26.80
429;DHT22;201;48.758;9.290;2022-11-14T04:56:15;1.10;26.80
429;DHT22;201;48.758;9.290;2022-11-14T04:58:41;1.00;26.70
429;DHT22;201;48.758;9.290;2022-11-14T05:01:08;1.00;26.80
429;DHT22;201;48.758;9.290;2022-11-14T05:03:33;1.00;26.80
429;DHT22;201;48.758;9.290;2022-11-14T05:05:59;1.00;26.80
429;DHT22;201;48.758;9.290;2022-11-14T05:08:25;0.90;26.70
429;DHT22;201;48.758;9.290;2022-11-14T05:10:50;0.80;26.70
429;DHT22;201;48.758;9.290;2022-11-14T05:13:16;0.90;26.70
429;DHT22;201;48.758;9.290;2022-11-14T05:15:41;0.90;26.80
429;DHT22;201;48.758;9.290;2022-11-14T05:18:07;0.90;26.80
429;DHT22;201;48.758;9.290;2022-11-14T05:20:32;0.90;26.80
429;DHT22;201;48.758;9.290;2022-11-14T05:22:58;0.80;26.80
429;DHT22;201;48.758;9.290;2022-11-14T05:25:23;0.80;26.80
429;DHT22;201;48.758;9.290;2022-11-14T05:27:49;0.80;26.80
429;DHT22;201;48.758;9.290;2022-11-14T05:30:15;0.80;26.90
429;DHT22;201;48.758;9.290;2022-11-14T05:32:40;0.80;26.90
429;DHT22;201;48.758;9.290;2022-11-14T05:35:07;0.80;26.90
429;DHT22;201;48.758;9.290;2022-11-14T05:37:33;0.80;27.00
429;DHT22;201;48.758;9.290;2022-11-14T05:39:59;0.90;27.00
429;DHT22;201;48.758;9.290;2022-11-14T05:42:26;0.90;27.10
429;DHT22;201;48.758;9.290;2022-11-14T05:44:52;0.90;27.10
429;DHT22;201;48.758;9.290;2022-11-14T05:47:17;0.90;27.10
429;DHT22;201;48.758;9.290;2022-11-14T05:49:43;0.90;27.10
429;DHT22;201;48.758;9.290;2022-11-14T05:52:08;0.90;27.10
429;DHT22;201;48.758;9.290;2022-11-14T05:54:34;0.90;27.20
429;DHT22;201;48.758;9.290;2022-11-14T05:56:59;1.00;27.20
429;DHT22;201;48.758;9.290;2022-11-14T05:59:25;1.00;27.20
429;DHT22;201;48.758;9.290;2022-11-14T06:01:50;1.00;27.30
429;DHT22;201;48.758;9.290;2022-11-14T06:04:16;1.00;27.20
429;DHT22;201;48.758;9.290;2022-11-14T06:06:41;1.10;27.30
429;DHT22;201;48.758;9.290;2022-11-14T06:09:07;1.10;27.30
429;DHT22;201;48.758;9.290;2022-11-14T06:11:33;1.10;27.30
429;DHT22;201;48.758;9.290;2022-11-14T06:13:58;1.20;27.30
429;DHT22;201;48.758;9.290;2022-11-14T06:16:24;1.30;27.40
429;DHT22;201;48.758;9.290;2022-11-14T06:18:52;1.30;27.40
429;DHT22;201;48.758;9.290;2022-11-14T06:21:19;1.50;27.50
429;DHT22;201;48.758;9.290;2022-11-14T06:23:46;1.60;27.60
429;DHT22;201;48.758;9.290;2022-11-14T06:26:22;1.70;27.60
429;DHT22;201;48.758;9.290;2022-11-14T06:28:49;1.90;27.80
429;DHT22;201;48.758;9.290;2022-11-14T06:31:16;2.10;27.80
429;DHT22;201;48.758;9.290;2022-11-14T06:33:42;2.30;28.00
429;DHT22;201;48.758;9.290;2022-11-14T06:36:08;2.30;27.90
429;DHT22;201;48.758;9.290;2022-11-14T06:38:35;2.30;28.00
429;DHT22;201;48.758;9.290;2022-11-14T06:41:05;2.30;28.00
429;DHT22;201;48.758;9.290;2022-11-14T06:43:36;2.30;28.00
429;DHT22;201;48.758;9.290;2022-11-14T06:46:02;2.30;27.90
429;DHT22;201;48.758;9.290;2022-11-14T06:48:29;2.30;27.90
429;DHT22;201;48.758;9.290;2022-11-14T06:50:56;2.40;27.90
429;DHT22;201;48.758;9.290;2022-11-14T06:53:22;2.40;27.80
429;DHT22;201;48.758;9.290;2022-11-14T06:55:53;2.40;27.70
429;DHT22;201;48.758;9.290;2022-11-14T06:58:19;2.50;27.80
429;DHT22;201;48.758;9.290;2022-11-14T07:00:45;2.50;27.60
429;DHT22;201;48.758;9.290;2022-11-14T07:03:10;2.50;27.50
429;DHT22;201;48.758;9.290;2022-11-14T07:05:36;2.50;27.40
429;DHT22;201;48.758;9.290;2022-11-14T07:08:01;2.60;27.50
429;DHT22;201;48.758;9.290;2022-11-14T07:10:27;2.60;27.30
429;DHT22;201;48.758;9.290;2022-11-14T07:12:53;2.70;27.40
429;DHT22;201;48.758;9.290;2022-11-14T07:15:18;2.80;27.30
429;DHT22;201;48.758;9.290;2022-11-14T07:17:44;2.80;27.30
429;DHT22;201;48.758;9.290;2022-11-14T07:20:09;2.90;27.30
429;DHT22;201;48.758;9.290;2022-11-14T07:22:35;2.90;27.20
429;DHT22;201;48.758;9.290;2022-11-14T07:25:00;2.90;27.00
429;DHT22;201;48.758;9.290;2022-11-14T07:27:26;3.00;27.10
429;DHT22;201;48.758;9.290;2022-11-14T07:29:51;3.00;27.00
429;DHT22;201;48.758;9.290;2022-11-14T07:32:17;3.10;27.10
429;DHT22;201;48.758;9.290;2022-11-14T07:34:42;3.10;27.00
429;DHT22;201;48.758;9.290;2022-11-14T07:37:08;3.20;27.00
429;DHT22;201;48.758;9.290;2022-11-14T07:39:33;3.20;26.90
429;DHT22;201;48.758;9.290;2022-11-14T07:41:59;3.20;26.80
429;DHT22;201;48.758;9.290;2022-11-14T07:44:24;3.20;26.60
429;DHT22;201;48.758;9.290;2022-11-14T07:46:50;3.20;26.40
429;DHT22;201;48.758;9.290;2022-11-14T07:49:16;3.30;26.50
429;DHT22;201;48.758;9.290;2022-11-14T07:51:41;3.50;26.60
429;DHT22;201;48.758;9.290;2022-11-14T07:54:10;3.60;26.60
429;DHT22;201;48.758;9.290;2022-11-14T07:56:36;3.70;26.50
429;DHT22;201;48.758;9.290;2022-11-14T07:59:01;3.90;26.30
429;DHT22;201;48.758;9.290;2022-11-14T08:01:27;4.00;26.20
429;DHT22;201;48.758;9.290;2022-11-14T08:03:53;4.00;25.40
429;DHT22;201;48.758;9.290;2022-11-14T08:06:18;4.00;25.20
429;DHT22;201;48.758;9.290;2022-11-14T08:08:44;4.00;24.70
429;DHT22;201;48.758;9.290;2022-11-14T08:11:10;3.90;24.30
429;DHT22;201;48.758;9.290;2022-11-14T08:13:36;3.90;24.20
429;DHT22;201;48.758;9.290;2022-11-14T08:16:07;4.00;24.30
429;DHT22;201;48.758;9.290;2022-11-14T08:18:32;3.90;22.90
429;DHT22;201;48.758;9.290;2022-11-14T08:20:58;3.70;22.20
429;DHT22;201;48.758;9.290;2022-11-14T08:23:23;3.40;20.20
429;DHT22;201;48.758;9.290;2022-11-14T08:25:49;3.10;21.10
429;DHT22;201;48.758;9.290;2022-11-14T08:28:14;2.90;22.20
429;DHT22;201;48.758;9.290;2022-11-14T08:30:40;2.90;23.60
429;DHT22;201;48.758;9.290;2022-11-14T08:33:07;3.10;24.50
429;DHT22;201;48.758;9.290;2022-11-14T08:35:32;3.20;24.70
429;DHT22;201;48.758;9.290;2022-11-14T08:38:02;3.40;25.00
429;DHT22;201;48.758;9.290;2022-11-14T08:40:28;3.60;25.40
429;DHT22;201;48.758;9.290;2022-11-14T08:43:01;3.70;25.80
429;DHT22;201;48.758;9.290;2022-11-14T08:45:27;3.90;26.10
429;DHT22;201;48.758;9.290;2022-11-14T08:47:53;4.10;26.40
429;DHT22;201;48.758;9.290;2022-11-14T08:50:19;4.30;26.70
429;DHT22;201;48.758;9.290;2022-11-14T08:52:51;4.50;27.00
429;DHT22;201;48.758;9.290;2022-11-14T08:55:17;4.60;27.00
429;DHT22;201;48.758;9.290;2022-11-14T08:57:43;4.70;27.10
429;DHT22;201;48.758;9.290;2022-11-14T09:00:09;4.70;27.00
429;DHT22;201;48.758;9.290;2022-11-14T09:02:35;4.60;26.60
429;DHT22;201;48.758;9.290;2022-11-14T09:05:00;4.50;26.30
429;DHT22;201;48.758;9.290;2022-11-14T09:07:26;4.40;25.90
429;DHT22;201;48.758;9.290;2022-11-14T09:09:52;4.20;25.80
429;DHT22;201;48.758;9.290;2022-11-14T09:12:18;4.20;25.70
429;DHT22;201;48.758;9.290;2022-11-14T09:14:44;4.20;25.80
429;DHT22;201;48.758;9.290;2022-11-14T09:17:09;4.10;25.80
429;DHT22;201;48.758;9.290;2022-11-14T09:19:35;4.10;25.80
429;DHT22;201;48.758;9.290;2022-11-14T09:22:00;4.10;25.90
429;DHT22;201;48.758;9.290;2022-11-14T09:24:26;4.10;26.20
429;DHT22;201;48.758;9.290;2022-11-14T09:26:52;4.20;26.40
429;DHT22;201;48.758;9.290;2022-11-14T09:29:17;4.30;26.70
429;DHT22;201;48.758;9.290;2022-11-14T09:31:43;4.50;27.10
429;DHT22;201;48.758;9.290;2022-11-14T09:34:09;4.50;27.20
429;DHT22;201;48.758;9.290;2022-11-14T09:36:35;4.60;27.30
429;DHT22;201;48.758;9.290;2022-11-14T09:39:00;4.70;27.40
429;DHT22;201;48.758;9.290;2022-11-14T09:47:18;5.10;27.70
429;DHT22;201;48.758;9.290;2022-11-14T09:49:46;5.30;27.80
429;DHT22;201;48.758;9.290;2022-11-14T09:55:26;5.50;27.90
429;DHT22;201;48.758;9.290;2022-11-14T09:57:52;5.60;28.00
429;DHT22;201;48.758;9.290;2022-11-14T10:00:24;5.70;28.60
429;DHT22;201;48.758;9.290;2022-11-14T10:03:17;5.80;28.20
429;DHT22;201;48.758;9.290;2022-11-14T10:19:52;6.50;28.60
429;DHT22;201;48.758;9.290;2022-11-14T10:25:21;6.70;28.50
429;DHT22;201;48.758;9.290;2022-11-14T10:30:45;6.80;28.00
429;DHT22;201;48.758;9.290;2022-11-14T10:41:48;6.80;26.80
429;DHT22;201;48.758;9.290;2022-11-14T10:44:19;6.80;26.70
429;DHT22;201;48.758;9.290;2022-11-14T10:46:51;6.80;26.70
429;DHT22;201;48.758;9.290;2022-11-14T10:49:22;6.90;26.60
429;DHT22;201;48.758;9.290;2022-11-14T10:51:58;7.10;26.70
429;DHT22;201;48.758;9.290;2022-11-14T10:57:15;7.40;26.10
429;DHT22;201;48.758;9.290;2022-11-14T10:59:41;7.50;25.30
429;DHT22;201;48.758;9.290;2022-11-14T11:02:07;7.60;25.40
429;DHT22;201;48.758;9.290;2022-11-14T11:04:35;7.80;25.60
429;DHT22;201;48.758;9.290;2022-11-14T11:09:37;7.90;25.00
429;DHT22;201;48.758;9.290;2022-11-14T11:12:50;8.10;25.00
429;DHT22;201;48.758;9.290;2022-11-14T11:15:25;8.30;23.80
429;DHT22;201;48.758;9.290;2022-11-14T11:18:00;8.50;23.30
429;DHT22;201;48.758;9.290;2022-11-14T11:25:36;9.40;19.20
429;DHT22;201;48.758;9.290;2022-11-14T11:30:32;9.80;16.90
429;DHT22;201;48.758;9.290;2022-11-14T11:33:21;9.90;15.10
429;DHT22;201;48.758;9.290;2022-11-14T11:35:49;10.10;12.50
429;DHT22;201;48.758;9.290;2022-11-14T11:38:18;10.20;12.20
429;DHT22;201;48.758;9.290;2022-11-14T11:40:46;10.20;11.50
429;DHT22;201;48.758;9.290;2022-11-14T11:43:25;10.20;11.30
429;DHT22;201;48.758;9.290;2022-11-14T11:45:53;10.30;10.90
429;DHT22;201;48.758;9.290;2022-11-14T11:48:21;10.30;10.80
429;DHT22;201;48.758;9.290;2022-11-14T11:50:48;10.40;10.60
429;DHT22;201;48.758;9.290;2022-11-14T11:53:22;10.50;9.90
429;DHT22;201;48.758;9.290;2022-11-14T11:55:52;10.60;9.90
429;DHT22;201;48.758;9.290;2022-11-14T12:01:02;10.70;9.40
429;DHT22;201;48.758;9.290;2022-11-14T12:03:28;10.60;8.60
429;DHT22;201;48.758;9.290;2022-11-14T12:09:11;10.60;8.50
429;DHT22;201;48.758;9.290;2022-11-14T12:11:43;10.50;8.50
429;DHT22;201;48.758;9.290;2022-11-14T12:14:46;10.50;8.50
429;DHT22;201;48.758;9.290;2022-11-14T12:29:21;10.40;8.10
429;DHT22;201;48.758;9.290;2022-11-14T12:32:03;10.50;7.60
429;DHT22;201;48.758;9.290;2022-11-14T12:34:33;10.60;8.10
429;DHT22;201;48.758;9.290;2022-11-14T12:37:08;10.60;7.70
429;DHT22;201;48.758;9.290;2022-11-14T12:39:35;10.70;7.30
429;DHT22;201;48.758;9.290;2022-11-14T12:42:03;10.90;7.50
429;DHT22;201;48.758;9.290;2022-11-14T12:44:30;11.20;7.20
429;DHT22;201;48.758;9.290;2022-11-14T12:58:06;12.30;3.00
429;DHT22;201;48.758;9.290;2022-11-14T13:00:59;12.30;2.40
429;DHT22;201;48.758;9.290;2022-11-14T13:06:57;11.90;2.10
429;DHT22;201;48.758;9.290;2022-11-14T13:09:33;11.90;2.10
429;DHT22;201;48.758;9.290;2022-11-14T13:12:25;12.00;2.20
429;DHT22;201;48.758;9.290;2022-11-14T13:15:30;12.20;2.30
429;DHT22;201;48.758;9.290;2022-11-14T13:18:25;12.40;2.50
429;DHT22;201;48.758;9.290;2022-11-14T13:21:26;12.40;1.00
429;DHT22;201;48.758;9.290;2022-11-14T13:24:17;12.50;1.60
429;DHT22;201;48.758;9.290;2022-11-14T13:26:50;12.50;1.00
429;DHT22;201;48.758;9.290;2022-11-14T13:32:00;12.70;1.00
429;DHT22;201;48.758;9.290;2022-11-14T13:34:50;12.70;1.00
429;DHT22;201;48.758;9.290;2022-11-14T13:40:44;12.90;1.00
429;DHT22;201;48.758;9.290;2022-11-14T13:46:31;13.00;1.00
429;DHT22;201;48.758;9.290;2022-11-14T13:51:46;13.10;1.00
429;DHT22;201;48.758;9.290;2022-11-14T13:54:13;13.10;1.00
429;DHT22;201;48.758;9.290;2022-11-14T14:07:57;12.90;1.00
429;DHT22;201;48.758;9.290;2022-11-14T14:21:19;12.70;1.00
429;DHT22;201;48.758;9.290;2022-11-14T14:29:37;12.60;1.00
429;DHT22;201;48.758;9.290;2022-11-14T14:32:12;12.60;1.00
429;DHT22;201;48.758;9.290;2022-11-14T14:34:37;12.60;1.00
429;DHT22;201;48.758;9.290;2022-11-14T14:37:16;12.50;1.00
429;DHT22;201;48.758;9.290;2022-11-14T14:39:57;12.50;1.00
429;DHT22;201;48.758;9.290;2022-11-14T14:42:24;12.50;1.00
429;DHT22;201;48.758;9.290;2022-11-14T14:44:50;12.40;1.00
429;DHT22;201;48.758;9.290;2022-11-14T14:49:54;12.40;1.00
429;DHT22;201;48.758;9.290;2022-11-14T14:54:55;12.40;1.00
429;DHT22;201;48.758;9.290;2022-11-14T14:57:21;12.30;1.00
429;DHT22;201;48.758;9.290;2022-11-14T14:59:58;12.30;1.00
429;DHT22;201;48.758;9.290;2022-11-14T15:02:25;12.20;1.00
429;DHT22;201;48.758;9.290;2022-11-14T15:04:50;12.10;1.00
429;DHT22;201;48.758;9.290;2022-11-14T15:07:21;12.00;1.00
429;DHT22;201;48.758;9.290;2022-11-14T15:09:59;12.00;1.00
429;DHT22;201;48.758;9.290;2022-11-14T15:12:26;11.90;1.00
429;DHT22;201;48.758;9.290;2022-11-14T15:14:53;11.90;1.00
429;DHT22;201;48.758;9.290;2022-11-14T15:17:21;11.90;1.00
429;DHT22;201;48.758;9.290;2022-11-14T15:19:49;11.90;1.00
429;DHT22;201;48.758;9.290;2022-11-14T15:24:42;11.80;1.00
429;DHT22;201;48.758;9.290;2022-11-14T15:27:17;11.80;1.00
429;DHT22;201;48.758;9.290;2022-11-14T15:29:47;11.90;1.00
429;DHT22;201;48.758;9.290;2022-11-14T15:32:18;11.90;1.00
429;DHT22;201;48.758;9.290;2022-11-14T15:35:06;11.90;1.00
429;DHT22;201;48.758;9.290;2022-11-14T15:37:32;11.90;1.00
429;DHT22;201;48.758;9.290;2022-11-14T15:40:20;11.90;1.00
429;DHT22;201;48.758;9.290;2022-11-14T15:42:46;11.90;1.00
429;DHT22;201;48.758;9.290;2022-11-14T15:45:22;11.90;1.00
429;DHT22;201;48.758;9.290;2022-11-14T15:47:57;11.90;1.00
429;DHT22;201;48.758;9.290;2022-11-14T15:50:33;11.90;1.00
429;DHT22;201;48.758;9.290;2022-11-14T15:53:00;11.80;1.00
429;DHT22;201;48.758;9.290;2022-11-14T15:55:27;11.80;1.00
429;DHT22;201;48.758;9.290;2022-11-14T15:57:53;11.70;1.00
429;DHT22;201;48.758;9.290;2022-11-14T16:00:18;11.60;1.00
429;DHT22;201;48.758;9.290;2022-11-14T16:02:50;11.60;1.00
429;DHT22;201;48.758;9.290;2022-11-14T16:05:20;11.40;1.70
429;DHT22;201;48.758;9.290;2022-11-14T16:07:48;11.30;1.70
429;DHT22;201;48.758;9.290;2022-11-14T16:10:16;11.20;1.60
429;DHT22;201;48.758;9.290;2022-11-14T16:12:42;11.20;1.60
429;DHT22;201;48.758;9.290;2022-11-14T16:15:07;11.10;1.50
429;DHT22;201;48.758;9.290;2022-11-14T16:17:38;11.00;1.40
429;DHT22;201;48.758;9.290;2022-11-14T16:20:05;11.00;1.40
429;DHT22;201;48.758;9.290;2022-11-14T16:22:31;10.90;1.40
429;DHT22;201;48.758;9.290;2022-11-14T16:24:59;10.90;1.40
429;DHT22;201;48.758;9.290;2022-11-14T16:27:25;10.80;1.30
429;DHT22;201;48.758;9.290;2022-11-14T16:29:51;10.70;2.30
429;DHT22;201;48.758;9.290;2022-11-14T16:32:17;10.70;2.70
429;DHT22;201;48.758;9.290;2022-11-14T16:34:43;10.60;3.00
429;DHT22;201;48.758;9.290;2022-11-14T16:37:11;10.60;3.50
429;DHT22;201;48.758;9.290;2022-11-14T16:39:37;10.50;3.80
429;DHT22;201;48.758;9.290;2022-11-14T16:42:03;10.40;3.70
429;DHT22;201;48.758;9.290;2022-11-14T16:44:30;10.40;3.80
429;DHT22;201;48.758;9.290;2022-11-14T16:46:55;10.30;3.70
429;DHT22;201;48.758;9.290;2022-11-14T16:49:22;10.30;3.70
429;DHT22;201;48.758;9.290;2022-11-14T16:51:49;10.30;3.70
429;DHT22;201;48.758;9.290;2022-11-14T16:54:15;10.20;3.60
429;DHT22;201;48.758;9.290;2022-11-14T16:56:41;10.20;3.60
429;DHT22;201;48.758;9.290;2022-11-14T16:59:08;10.10;3.40
429;DHT22;201;48.758;9.290;2022-11-14T17:01:34;10.10;3.20
429;DHT22;201;48.758;9.290;2022-11-14T17:04:00;10.20;3.20
429;DHT22;201;48.758;9.290;2022-11-14T17:06:26;10.10;3.20
429;DHT22;201;48.758;9.290;2022-11-14T17:08:54;10.10;3.30
429;DHT22;201;48.758;9.290;2022-11-14T17:11:20;10.10;3.40
429;DHT22;201;48.758;9.290;2022-11-14T17:13:45;10.10;3.40
429;DHT22;201;48.758;9.290;2022-11-14T17:16:11;10.00;3.60
429;DHT22;201;48.758;9.290;2022-11-14T17:18:36;10.00;3.80
429;DHT22;201;48.758;9.290;2022-11-14T17:21:07;9.90;5.10
429;DHT22;201;48.758;9.290;2022-11-14T17:23:33;9.80;5.80
429;DHT22;201;48.758;9.290;2022-11-14T17:26:03;9.60;6.70
429;DHT22;201;48.758;9.290;2022-11-14T17:28:29;9.60;7.40
429;DHT22;201;48.758;9.290;2022-11-14T17:30:55;9.50;7.70
429;DHT22;201;48.758;9.290;2022-11-14T17:33:21;9.40;8.00
429;DHT22;201;48.758;9.290;2022-11-14T17:35:46;9.40;8.20
429;DHT22;201;48.758;9.290;2022-11-14T17:38:12;9.40;8.30
429;DHT22;201;48.758;9.290;2022-11-14T17:40:37;9.40;8.10
429;DHT22;201;48.758;9.290;2022-11-14T17:43:03;9.40;8.00
429;DHT22;201;48.758;9.290;2022-11-14T17:45:28;9.50;7.60
429;DHT22;201;48.758;9.290;2022-11-14T17:47:54;9.50;7.10
429;DHT22;201;48.758;9.290;2022-11-14T17:50:19;9.50;7.10
429;DHT22;201;48.758;9.290;2022-11-14T17:52:45;9.60;7.00
429;DHT22;201;48.758;9.290;2022-11-14T17:55:10;9.60;6.70
429;DHT22;201;48.758;9.290;2022-11-14T17:57:36;9.60;6.50
429;DHT22;201;48.758;9.290;2022-11-14T18:00:03;9.70;6.30
429;DHT22;201;48.758;9.290;2022-11-14T18:02:29;9.70;5.80
429;DHT22;201;48.758;9.290;2022-11-14T18:04:55;9.80;5.80
429;DHT22;201;48.758;9.290;2022-11-14T18:07:20;9.90;5.50
429;DHT22;201;48.758;9.290;2022-11-14T18:09:46;9.90;5.40
429;DHT22;201;48.758;9.290;2022-11-14T18:12:11;9.90;5.20
429;DHT22;201;48.758;9.290;2022-11-14T18:14:37;10.00;4.30
429;DHT22;201;48.758;9.290;2022-11-14T18:17:02;10.00;4.00
429;DHT22;201;48.758;9.290;2022-11-14T18:19:28;10.10;3.80
429;DHT22;201;48.758;9.290;2022-11-14T18:21:53;10.10;3.90
429;DHT22;201;48.758;9.290;2022-11-14T18:24:19;10.10;3.70
429;DHT22;201;48.758;9.290;2022-11-14T18:26:45;10.10;3.60
429;DHT22;201;48.758;9.290;2022-11-14T18:29:11;10.10;3.40
429;DHT22;201;48.758;9.290;2022-11-14T18:31:38;10.10;3.30
429;DHT22;201;48.758;9.290;2022-11-14T18:34:03;10.10;3.30
429;DHT22;201;48.758;9.290;2022-11-14T18:36:29;10.10;3.40
429;DHT22;201;48.758;9.290;2022-11-14T18:38:55;10.10;3.60
429;DHT22;201;48.758;9.290;2022-11-14T18:41:22;10.10;3.80
429;DHT22;201;48.758;9.290;2022-11-14T18:43:48;10.00;4.10
429;DHT22;201;48.758;9.290;2022-11-14T18:46:19;10.00;4.20
429;DHT22;201;48.758;9.290;2022-11-14T18:48:51;9.90;5.20
429;DHT22;201;48.758;9.290;2022-11-14T18:51:23;9.90;5.40
429;DHT22;201;48.758;9.290;2022-11-14T18:53:49;9.80;5.50
429;DHT22;201;48.758;9.290;2022-11-14T18:56:20;9.80;5.70
429;DHT22;201;48.758;9.290;2022-11-14T18:58:50;9.70;5.70
429;DHT22;201;48.758;9.290;2022-11-14T19:01:34;9.70;5.70
429;DHT22;201;48.758;9.290;2022-11-14T19:04:03;9.70;6.00
429;DHT22;201;48.758;9.290;2022-11-14T19:06:30;9.70;5.90
429;DHT22;201;48.758;9.290;2022-11-14T19:08:57;9.70;5.90
429;DHT22;201;48.758;9.290;2022-11-14T19:11:22;9.70;5.90
429;DHT22;201;48.758;9.290;2022-11-14T19:14:06;9.60;5.80